createdAt,value
2019-04-26T00:01:48.780Z,3.03
2019-04-26T00:06:53.484Z,4.50
2019-04-26T00:12:18.543Z,3.93
2019-04-26T00:17:41.504Z,9.60
2019-04-26T00:22:46.764Z,2.87
2019-04-26T00:27:51.706Z,2.70
2019-04-26T00:32:56.792Z,2.40
2019-04-26T00:38:01.936Z,3.30
2019-04-26T00:43:07.246Z,2.50
2019-04-26T00:48:15.119Z,4.27
2019-04-26T00:53:21.847Z,3.77
2019-04-26T00:58:28.474Z,3.87
2019-04-26T01:03:34.813Z,3.20
2019-04-26T01:08:39.833Z,6.30
2019-04-26T01:13:44.718Z,3.33
2019-04-26T01:18:50.816Z,12.00
2019-04-26T01:23:59.298Z,14.53
2019-04-26T01:29:10.634Z,7.70
2019-04-26T01:34:15.982Z,6.10
2019-04-26T01:39:23.718Z,6.57
2019-04-26T01:45:02.534Z,3.93
2019-04-26T01:50:08.948Z,5.13
2019-04-26T01:55:15.069Z,3.40
2019-04-26T02:00:34.933Z,3.50
2019-04-26T02:05:41.236Z,4.90
2019-04-26T02:10:46.504Z,2.90
2019-04-26T02:15:50.758Z,3.90
2019-04-26T02:21:14.283Z,3.40
2019-04-26T02:26:32.753Z,3.80
2019-04-26T02:31:39.290Z,10.40
2019-04-26T02:36:57.393Z,3.77
2019-04-26T02:41:53.350Z,3.30
2019-04-26T02:47:24.493Z,4.23
2019-04-26T02:52:59.537Z,6.17
2019-04-26T02:58:05.188Z,3.20
2019-04-26T03:03:11.337Z,9.73
2019-04-26T03:08:21.356Z,4.20
2019-04-26T03:13:59.650Z,5.00
2019-04-26T03:19:44.093Z,4.03
2019-04-26T03:24:56.614Z,4.47
2019-04-26T03:30:19.621Z,4.77
2019-04-26T03:35:48.611Z,5.60
2019-04-26T03:41:16.453Z,6.60
2019-04-26T03:46:50.544Z,6.27
2019-04-26T03:52:39.488Z,5.47
2019-04-26T03:57:53.886Z,5.60
2019-04-26T04:03:17.878Z,5.97
2019-04-26T04:08:33.618Z,6.73
2019-04-26T04:14:02.469Z,9.20
2019-04-26T04:19:22.333Z,6.57
2019-04-26T04:24:45.072Z,6.40
2019-04-26T04:30:13.472Z,7.03
2019-04-26T04:35:22.038Z,6.50
2019-04-26T04:40:49.001Z,5.10
2019-04-26T04:47:00.524Z,6.67
2019-04-26T04:52:34.546Z,5.70
2019-04-26T04:58:17.169Z,7.67
2019-04-26T05:03:51.062Z,6.00
2019-04-26T05:09:08.752Z,7.80
2019-04-26T05:14:52.254Z,6.77
2019-04-26T05:20:16.389Z,8.13
2019-04-26T05:26:25.592Z,7.77
2019-04-26T05:32:08.498Z,11.80
2019-04-26T05:37:24.398Z,7.43
2019-04-26T05:43:35.296Z,11.40
2019-04-26T05:49:47.429Z,8.07
2019-04-26T05:55:38.118Z,9.13
2019-04-26T06:01:24.106Z,10.87
2019-04-26T06:06:45.796Z,11.30
2019-04-26T06:12:06.013Z,12.27
2019-04-26T06:18:07.325Z,11.87
2019-04-26T06:23:31.519Z,12.13
2019-04-26T06:28:53.352Z,12.27
2019-04-26T06:34:13.919Z,17.73
2019-04-26T06:39:47.290Z,12.43
2019-04-26T06:45:56.897Z,15.60
2019-04-26T06:51:24.302Z,15.70
2019-04-26T06:56:51.992Z,13.57
2019-04-26T07:02:11.769Z,12.33
2019-04-26T07:07:47.382Z,14.00
2019-04-26T07:13:40.734Z,12.40
2019-04-26T07:19:30.430Z,12.40
2019-04-26T07:25:18.014Z,10.47
2019-04-26T07:30:57.935Z,11.80
2019-04-26T07:36:40.831Z,11.07
2019-04-26T07:42:55.692Z,11.03
2019-04-26T07:48:36.212Z,10.67
2019-04-26T07:54:19.808Z,13.53
2019-04-26T08:00:12.985Z,10.17
2019-04-26T08:05:29.870Z,11.37
2019-04-26T08:10:39.338Z,11.70
2019-04-26T08:16:16.834Z,10.80
2019-04-26T08:21:31.859Z,13.60
2019-04-26T08:26:39.439Z,10.60
2019-04-26T08:31:46.569Z,10.33
2019-04-26T08:37:03.093Z,24.80
2019-04-26T08:42:18.257Z,13.10
2019-04-26T08:47:38.914Z,9.20
2019-04-26T08:52:48.135Z,10.93
2019-04-26T08:57:57.358Z,15.23
2019-04-26T09:03:12.851Z,11.10
2019-04-26T09:08:20.487Z,10.10
2019-04-26T09:13:29.850Z,13.40
2019-04-26T09:18:43.143Z,14.43
2019-04-26T09:24:01.754Z,8.70
2019-04-26T09:29:26.440Z,8.77
2019-04-26T09:34:30.864Z,9.80
2019-04-26T09:39:36.061Z,9.27
2019-04-26T09:44:51.154Z,9.10
2019-04-26T09:50:11.250Z,7.77
2019-04-26T09:55:17.600Z,8.00
2019-04-26T10:00:28.304Z,10.60
2019-04-26T10:05:35.636Z,8.40
2019-04-26T10:10:43.599Z,9.07
2019-04-26T10:16:15.275Z,10.40
2019-04-26T10:21:20.238Z,9.93
2019-04-26T10:26:28.076Z,9.80
2019-04-26T10:31:30.651Z,7.93
2019-04-26T10:36:35.676Z,10.50
2019-04-26T10:41:40.287Z,8.17
2019-04-26T10:46:55.025Z,12.20
2019-04-26T10:51:51.090Z,8.00
2019-04-26T10:57:07.332Z,9.60
2019-04-26T11:02:17.434Z,10.33
2019-04-26T11:07:22.792Z,8.00
2019-04-26T11:12:29.255Z,9.70
2019-04-26T11:17:34.815Z,9.80
2019-04-26T11:22:40.294Z,8.80
2019-04-26T11:27:48.555Z,11.80
2019-04-26T11:32:52.818Z,11.90
2019-04-26T11:37:58.175Z,13.37
2019-04-26T11:43:03.644Z,12.43
2019-04-26T11:48:09.160Z,16.10
2019-04-26T11:53:14.484Z,10.83
2019-04-26T11:58:22.419Z,9.60
2019-04-26T12:03:28.589Z,11.60
2019-04-26T12:08:47.881Z,10.80
2019-04-26T12:13:55.302Z,10.43
2019-04-26T12:19:03.082Z,10.50
2019-04-26T12:24:08.361Z,11.63
2019-04-26T12:29:14.754Z,10.70
2019-04-26T12:34:20.525Z,11.43
2019-04-26T12:39:26.436Z,13.10
2019-04-26T12:44:44.253Z,12.87
2019-04-26T12:49:49.472Z,11.97
2019-04-26T12:54:57.585Z,12.17
2019-04-26T13:00:03.728Z,10.40
2019-04-26T13:05:14.610Z,10.30
2019-04-26T13:10:35.494Z,11.80
2019-04-26T13:16:21.495Z,13.77
2019-04-26T13:21:23.530Z,15.13
2019-04-26T13:26:30.284Z,11.50
2019-04-26T13:31:35.287Z,10.00
2019-04-26T13:36:39.740Z,7.80
2019-04-26T13:41:44.427Z,8.27
2019-04-26T13:47:07.994Z,8.00
2019-04-26T13:52:13.780Z,7.30
2019-04-26T13:57:18.478Z,7.10
2019-04-26T14:02:23.005Z,6.13
2019-04-26T14:07:27.172Z,7.57
2019-04-26T14:12:31.394Z,6.67
2019-04-26T14:17:37.690Z,5.60
2019-04-26T14:22:57.896Z,5.10
2019-04-26T14:28:03.428Z,5.57
2019-04-26T14:33:09.213Z,5.00
2019-04-26T14:38:27.300Z,5.80
2019-04-26T14:43:23.562Z,5.13
2019-04-26T14:48:36.186Z,5.10
2019-04-26T14:53:38.048Z,7.10
2019-04-26T14:58:43.235Z,7.83
2019-04-26T15:04:08.860Z,7.23
2019-04-26T15:09:19.515Z,6.73
2019-04-26T15:14:22.839Z,5.83
2019-04-26T15:19:29.360Z,13.07
2019-04-26T15:24:38.618Z,6.87
2019-04-26T15:29:42.413Z,4.47
2019-04-26T15:34:47.682Z,5.20
2019-04-26T15:40:08.669Z,3.53
2019-04-26T15:45:43.843Z,4.27
2019-04-26T15:50:51.850Z,4.07
2019-04-26T15:55:54.564Z,6.50
2019-04-26T16:00:58.414Z,6.47
2019-04-26T16:06:07.072Z,4.80
2019-04-26T16:11:11.260Z,7.20
2019-04-26T16:16:16.563Z,5.40
2019-04-26T16:21:23.770Z,5.50
2019-04-26T16:26:32.801Z,7.77
2019-04-26T16:32:02.778Z,7.77
2019-04-26T16:37:09.831Z,9.10
2019-04-26T16:42:14.639Z,5.50
2019-04-26T16:47:23.249Z,7.40
2019-04-26T16:52:28.274Z,9.33
2019-04-26T16:57:34.050Z,4.97
2019-04-26T17:02:40.390Z,5.17
2019-04-26T17:07:46.812Z,6.13
2019-04-26T17:12:54.219Z,8.90
2019-04-26T17:17:57.537Z,6.63
2019-04-26T17:23:25.434Z,5.37
2019-04-26T17:28:32.445Z,5.73
2019-04-26T17:33:37.578Z,7.90
2019-04-26T17:38:42.866Z,5.40
2019-04-26T17:43:52.046Z,5.10
2019-04-26T17:48:54.889Z,6.60
2019-04-26T17:54:24.687Z,5.53
2019-04-26T17:59:09.390Z,7.20
2019-04-26T18:04:15.856Z,7.50
2019-04-26T18:09:40.486Z,10.27
2019-04-26T18:14:31.847Z,6.17
2019-04-26T18:19:45.273Z,7.53
2019-04-26T18:24:51.842Z,7.60
2019-04-26T18:29:59.799Z,7.43
2019-04-26T18:35:04.805Z,7.10
2019-04-26T18:40:10.126Z,6.33
2019-04-26T18:45:21.121Z,7.70
2019-04-26T18:50:23.743Z,12.20
2019-04-26T18:55:30.389Z,6.20
2019-04-26T19:00:38.322Z,5.37
2019-04-26T19:05:43.199Z,7.07
2019-04-26T19:10:58.354Z,6.77
2019-04-26T19:16:01.870Z,9.17
2019-04-26T19:21:15.813Z,6.40
2019-04-26T19:26:31.765Z,7.10
2019-04-26T19:31:28.183Z,9.00
2019-04-26T19:36:34.110Z,8.67
2019-04-26T19:41:38.862Z,9.03
2019-04-26T19:47:06.911Z,7.17
2019-04-26T19:52:39.571Z,10.23
2019-04-26T19:58:01.984Z,7.83
2019-04-26T20:03:08.494Z,9.13
2019-04-26T20:08:14.800Z,10.43
2019-04-26T20:13:22.278Z,10.40
2019-04-26T20:18:27.666Z,9.93
2019-04-26T20:23:33.942Z,9.77
2019-04-26T20:28:39.591Z,7.60
2019-04-26T20:33:47.592Z,9.47
2019-04-26T20:38:52.180Z,8.00
2019-04-26T20:44:06.919Z,6.80
2019-04-26T20:49:07.908Z,8.80
2019-04-26T20:54:16.313Z,9.90
2019-04-26T20:59:20.240Z,7.97
2019-04-26T21:04:36.681Z,7.77
2019-04-26T21:09:36.439Z,8.87
2019-04-26T21:14:44.576Z,11.40
2019-04-26T21:19:50.025Z,7.50
2019-04-26T21:25:04.391Z,9.33
2019-04-26T21:30:22.338Z,8.37
2019-04-26T21:35:33.659Z,9.33
2019-04-26T21:40:44.537Z,7.43
2019-04-26T21:45:49.195Z,7.73
2019-04-26T21:50:54.450Z,6.93
2019-04-26T21:55:59.622Z,11.00
2019-04-26T22:01:14.667Z,9.40
2019-04-26T22:06:19.904Z,12.00
2019-04-26T22:11:23.286Z,9.83
2019-04-26T22:16:57.534Z,9.00
2019-04-26T22:22:17.364Z,11.53
2019-04-26T22:27:25.369Z,7.63
2019-04-26T22:32:29.949Z,10.30
2019-04-26T22:37:35.210Z,7.90
2019-04-26T22:42:43.966Z,13.60
2019-04-26T22:48:04.878Z,9.90
2019-04-26T22:53:12.020Z,8.83
2019-04-26T22:58:20.568Z,8.50
2019-04-26T23:03:25.124Z,11.37
2019-04-26T23:08:30.726Z,10.00
2019-04-26T23:13:50.584Z,9.53
2019-04-26T23:19:15.237Z,9.60
2019-04-26T23:24:21.828Z,7.90
2019-04-26T23:29:27.117Z,9.90
2019-04-26T23:34:33.681Z,14.80
2019-04-26T23:39:44.514Z,7.07
2019-04-26T23:44:46.200Z,6.80
2019-04-26T23:49:53.842Z,6.20
2019-04-26T23:54:57.889Z,8.93
